Clayton, Georgia
Current Conditions -  °F | °C
As of 11:15 AM on Wednesday 28 Jan 2015 (Local Time) from KTOC Reporting Station
Clear Clear  
Wind Chill: 42°   Ceiling: Unl
Heat Index: 42°   Visibility: 10mi
Dew Point: 22°   Wind: 3mph
Humidity: 46%   Direction: 40°NE
Pressure: 30.28"   Gusts: NA
Location:  34.88°N, 83.4°W
Report Text: KTOC 281615Z AUTO 04003KT 10SM CLR 05/M05 A3028 RMK AO2 T00531054
Loading
Personal Weather Stations






























Interactive Weather Map New forecast layout! Learn more

10-Day Weather Forecast

Advertisements
Track Severe Weather on mobile